createdAt,value
2022-12-08T00:01:25.037Z,2.96
2022-12-08T00:03:52.876Z,2.88
2022-12-08T00:06:58.933Z,2.82
2022-12-08T00:09:39.776Z,3.35
2022-12-08T00:12:17.891Z,3.20
2022-12-08T00:14:47.190Z,3.00
2022-12-08T00:17:16.440Z,2.45
2022-12-08T00:19:44.284Z,3.08
2022-12-08T00:22:13.316Z,3.10
2022-12-08T00:24:45.515Z,3.11
2022-12-08T00:27:15.386Z,2.75
2022-12-08T00:29:44.681Z,2.72
2022-12-08T00:32:11.481Z,2.40
2022-12-08T00:34:38.174Z,2.67
2022-12-08T00:37:04.956Z,2.30
2022-12-08T00:39:31.749Z,2.18
2022-12-08T00:42:13.641Z,2.21
2022-12-08T00:44:45.120Z,2.71
2022-12-08T00:47:13.782Z,2.73
2022-12-08T00:49:41.075Z,2.18
2022-12-08T00:52:08.434Z,2.52
2022-12-08T00:54:35.470Z,2.82
2022-12-08T00:57:02.299Z,2.73
2022-12-08T00:59:29.050Z,3.08
2022-12-08T01:01:55.875Z,3.15
2022-12-08T01:04:24.047Z,2.93
2022-12-08T01:06:51.532Z,2.85
2022-12-08T01:09:19.150Z,2.72
2022-12-08T01:11:46.642Z,2.64
2022-12-08T01:14:13.647Z,2.70
2022-12-08T01:16:41.628Z,2.55
2022-12-08T01:19:12.201Z,2.73
2022-12-08T01:21:39.935Z,3.09
2022-12-08T01:24:07.271Z,3.14
2022-12-08T01:26:34.084Z,2.92
2022-12-08T01:29:01.844Z,2.75
2022-12-08T01:31:28.654Z,2.82
2022-12-08T01:33:55.478Z,2.77
2022-12-08T01:36:29.209Z,2.97
2022-12-08T01:38:59.138Z,3.12
2022-12-08T01:41:30.950Z,2.63
2022-12-08T01:44:08.374Z,3.40
2022-12-08T01:46:38.293Z,3.10
2022-12-08T01:49:19.644Z,3.35
2022-12-08T01:52:26.738Z,3.11
2022-12-08T01:55:07.051Z,2.85
2022-12-08T01:57:43.036Z,2.93
2022-12-08T02:00:13.442Z,3.33
2022-12-08T02:02:51.971Z,3.44
2022-12-08T02:05:22.098Z,3.35
2022-12-08T02:07:50.168Z,2.96
2022-12-08T02:10:23.223Z,2.68
2022-12-08T02:12:53.862Z,2.53
2022-12-08T02:15:31.836Z,2.86
2022-12-08T02:18:26.700Z,2.54
2022-12-08T02:21:39.484Z,3.00
2022-12-08T02:24:24.992Z,2.66
2022-12-08T02:27:22.505Z,2.64
2022-12-08T02:29:52.002Z,2.45
2022-12-08T02:32:27.271Z,2.91
2022-12-08T02:35:10.772Z,2.87
2022-12-08T02:38:03.265Z,2.76
2022-12-08T02:40:39.649Z,2.54
2022-12-08T02:43:17.491Z,2.78
2022-12-08T02:45:51.110Z,3.22
2022-12-08T02:48:18.005Z,2.77
2022-12-08T02:50:44.635Z,2.67
2022-12-08T02:55:42.966Z,2.63
2022-12-08T02:58:24.019Z,2.72
2022-12-08T03:01:12.381Z,2.48
2022-12-08T03:04:06.087Z,2.60
2022-12-08T03:06:42.025Z,2.86
2022-12-08T03:09:24.676Z,2.09
2022-12-08T03:12:11.309Z,1.51
2022-12-08T03:14:44.441Z,2.05
2022-12-08T03:17:12.877Z,2.36
2022-12-08T03:19:43.229Z,2.20
2022-12-08T03:22:12.256Z,2.38
2022-12-08T03:24:43.240Z,2.44
2022-12-08T03:27:20.519Z,2.91
2022-12-08T03:29:50.821Z,3.25
2022-12-08T03:32:47.607Z,3.40
2022-12-08T03:35:20.294Z,3.13
2022-12-08T03:37:47.171Z,3.14
2022-12-08T03:40:18.795Z,2.68
2022-12-08T03:42:45.509Z,3.29
2022-12-08T03:45:12.357Z,3.52
2022-12-08T03:47:39.106Z,2.70
2022-12-08T03:50:06.830Z,2.87
2022-12-08T03:52:33.621Z,2.71
2022-12-08T03:55:00.347Z,2.16
2022-12-08T03:57:27.011Z,2.66
2022-12-08T03:59:53.716Z,3.05
2022-12-08T04:02:20.480Z,1.42
2022-12-08T04:04:47.282Z,1.36
2022-12-08T04:07:14.319Z,2.18
2022-12-08T04:09:41.662Z,2.23
2022-12-08T04:12:09.172Z,1.98
2022-12-08T04:14:35.942Z,1.75
2022-12-08T04:17:02.704Z,2.20
2022-12-08T04:19:29.441Z,1.13
2022-12-08T04:21:56.174Z,1.25
2022-12-08T04:24:22.833Z,2.01
2022-12-08T04:26:50.557Z,1.89
2022-12-08T04:29:17.285Z,1.94
2022-12-08T04:31:44.406Z,0.53
2022-12-08T04:34:11.086Z,1.57
2022-12-08T04:36:37.911Z,1.72
2022-12-08T04:39:04.606Z,2.26
2022-12-08T04:41:31.309Z,1.94
2022-12-08T04:43:57.985Z,2.65
2022-12-08T04:46:24.678Z,2.71
2022-12-08T04:48:51.331Z,3.07
2022-12-08T04:51:20.685Z,3.29
2022-12-08T04:53:48.043Z,3.59
2022-12-08T04:56:19.319Z,3.13
2022-12-08T04:58:46.731Z,2.87
2022-12-08T05:01:13.668Z,2.25
2022-12-08T05:03:40.545Z,2.27
2022-12-08T05:06:07.414Z,2.44
2022-12-08T05:08:34.218Z,2.13
2022-12-08T05:11:09.466Z,2.00
2022-12-08T05:13:36.341Z,1.12
2022-12-08T05:16:12.654Z,1.10
2022-12-08T05:18:41.235Z,0.92
2022-12-08T05:21:09.118Z,0.82
2022-12-08T05:23:36.511Z,1.02
2022-12-08T05:26:03.462Z,1.39
2022-12-08T05:28:41.273Z,1.05
2022-12-08T05:31:10.399Z,1.28
2022-12-08T05:33:37.093Z,1.06
2022-12-08T05:36:04.004Z,0.79
2022-12-08T05:38:30.799Z,0.83
2022-12-08T05:40:57.710Z,1.42
2022-12-08T05:43:24.491Z,1.65
2022-12-08T05:45:51.301Z,1.74
2022-12-08T05:48:17.999Z,1.80
2022-12-08T05:50:49.033Z,1.43
2022-12-08T05:53:17.614Z,1.15
2022-12-08T05:55:45.156Z,1.87
2022-12-08T05:58:19.172Z,1.85
2022-12-08T06:00:47.014Z,1.93
2022-12-08T06:03:15.680Z,1.64
2022-12-08T06:05:44.372Z,2.23
2022-12-08T06:08:12.095Z,1.74
2022-12-08T06:10:44.963Z,2.20
2022-12-08T06:13:12.875Z,2.12
2022-12-08T06:15:42.867Z,2.15
2022-12-08T06:18:11.209Z,1.84
2022-12-08T06:20:37.832Z,1.61
2022-12-08T06:23:04.469Z,1.54
2022-12-08T06:25:31.182Z,1.94
2022-12-08T06:28:07.366Z,1.52
2022-12-08T06:30:34.351Z,1.39
2022-12-08T06:33:01.085Z,1.26
2022-12-08T06:35:27.815Z,1.18
2022-12-08T06:37:54.516Z,1.66
2022-12-08T06:40:21.196Z,0.88
2022-12-08T06:42:47.886Z,1.27
2022-12-08T06:45:17.800Z,1.23
2022-12-08T06:47:44.869Z,1.84
2022-12-08T06:50:13.318Z,1.75
2022-12-08T06:52:51.707Z,2.33
2022-12-08T06:55:57.506Z,2.38
2022-12-08T06:58:13.651Z,2.36
2022-12-08T07:00:42.038Z,2.11
2022-12-08T07:03:11.423Z,2.68
2022-12-08T07:05:38.869Z,2.43
2022-12-08T07:08:08.357Z,2.32
2022-12-08T07:10:35.393Z,2.39
2022-12-08T07:13:02.206Z,2.86
2022-12-08T07:15:28.999Z,2.51
2022-12-08T07:17:59.895Z,2.97
2022-12-08T07:20:27.812Z,3.08
2022-12-08T07:22:54.948Z,2.74
2022-12-08T07:25:22.188Z,2.75
2022-12-08T07:27:51.238Z,2.73
2022-12-08T07:30:18.046Z,2.68
2022-12-08T07:32:45.304Z,3.09
2022-12-08T07:35:12.006Z,3.27
2022-12-08T07:37:39.129Z,3.32
2022-12-08T07:40:08.577Z,3.23
2022-12-08T07:42:35.521Z,2.87
2022-12-08T07:45:02.447Z,3.30
2022-12-08T07:47:29.251Z,2.12
2022-12-08T07:49:56.052Z,2.80
2022-12-08T07:52:23.380Z,2.93
2022-12-08T07:54:50.052Z,2.92
2022-12-08T07:57:17.044Z,3.33
2022-12-08T07:59:43.733Z,3.31
2022-12-08T08:02:24.857Z,3.35
2022-12-08T08:04:52.797Z,3.13
2022-12-08T08:07:19.533Z,2.96
2022-12-08T08:09:46.340Z,3.06
2022-12-08T08:15:01.623Z,4.01
2022-12-08T08:17:29.721Z,4.03
2022-12-08T08:19:57.219Z,3.61
2022-12-08T08:22:25.704Z,3.68
2022-12-08T08:24:53.556Z,4.17
2022-12-08T08:27:20.728Z,4.33
2022-12-08T08:29:47.582Z,4.25
2022-12-08T08:32:14.282Z,3.03
2022-12-08T08:34:41.051Z,3.80
2022-12-08T08:37:07.793Z,4.34
2022-12-08T08:39:34.576Z,4.22
2022-12-08T08:42:01.267Z,4.09
2022-12-08T08:44:28.103Z,3.99
2022-12-08T08:46:54.825Z,3.41
2022-12-08T08:49:21.557Z,3.77
2022-12-08T08:51:48.332Z,3.81
2022-12-08T08:54:15.448Z,3.58
2022-12-08T08:56:45.176Z,3.39
2022-12-08T08:59:12.074Z,3.25
2022-12-08T09:01:38.758Z,3.35
2022-12-08T09:04:05.581Z,3.19
2022-12-08T09:06:32.685Z,3.23
2022-12-08T09:08:59.505Z,3.25
2022-12-08T09:11:26.195Z,3.46
2022-12-08T09:13:54.615Z,3.28
2022-12-08T09:16:23.006Z,2.56
2022-12-08T09:18:50.178Z,3.28
2022-12-08T09:21:22.689Z,2.99
2022-12-08T09:23:50.892Z,3.22
2022-12-08T09:26:17.680Z,3.45
2022-12-08T09:28:46.538Z,3.51
2022-12-08T09:31:14.587Z,3.43
2022-12-08T09:33:42.059Z,2.93
2022-12-08T09:36:10.058Z,3.46
2022-12-08T09:38:37.879Z,2.88
2022-12-08T09:41:36.536Z,2.76
2022-12-08T09:44:46.272Z,2.17
2022-12-08T09:47:35.693Z,2.09
2022-12-08T09:50:37.037Z,1.96
2022-12-08T09:53:12.545Z,2.15
2022-12-08T09:55:59.000Z,1.84
2022-12-08T09:58:53.610Z,2.07
2022-12-08T10:01:32.428Z,1.65
2022-12-08T10:04:00.290Z,1.46
2022-12-08T10:06:55.579Z,0.95
2022-12-08T10:09:52.762Z,1.12
2022-12-08T10:12:33.971Z,1.06
2022-12-08T10:15:38.204Z,1.34
2022-12-08T10:18:16.961Z,1.08
2022-12-08T10:20:47.478Z,1.10
2022-12-08T10:23:34.224Z,1.24
2022-12-08T10:26:11.205Z,0.93
2022-12-08T10:28:44.418Z,1.73
2022-12-08T10:31:21.806Z,2.12
2022-12-08T10:33:58.706Z,2.75
2022-12-08T10:36:54.351Z,1.54
2022-12-08T10:39:39.824Z,2.14
2022-12-08T10:42:21.809Z,1.44
2022-12-08T10:45:00.666Z,1.23
2022-12-08T10:47:29.783Z,1.54
2022-12-08T10:50:34.642Z,1.60
2022-12-08T10:53:07.620Z,1.60
2022-12-08T10:56:03.614Z,1.91
2022-12-08T10:58:47.264Z,1.40
2022-12-08T11:01:26.597Z,1.40
2022-12-08T11:04:07.455Z,1.46
2022-12-08T11:06:40.084Z,2.53
2022-12-08T11:09:24.547Z,2.43
2022-12-08T11:12:00.380Z,1.83
2022-12-08T11:14:37.513Z,1.50
2022-12-08T11:17:10.444Z,2.53
2022-12-08T11:19:40.609Z,2.95
2022-12-08T11:22:32.265Z,2.25
2022-12-08T11:25:08.273Z,1.74
2022-12-08T11:27:42.047Z,2.24
2022-12-08T11:30:22.317Z,2.07
2022-12-08T11:32:56.024Z,1.55
2022-12-08T11:35:32.507Z,1.26
2022-12-08T11:38:21.185Z,1.52
2022-12-08T11:41:03.335Z,1.91
2022-12-08T11:44:19.014Z,1.46
2022-12-08T11:46:58.443Z,0.97
2022-12-08T11:49:42.129Z,1.54
2022-12-08T11:52:33.970Z,1.37
2022-12-08T11:55:25.465Z,1.77
2022-12-08T11:57:54.900Z,2.29
2022-12-08T12:00:21.671Z,2.51
2022-12-08T12:03:04.508Z,2.92
2022-12-08T12:06:53.763Z,4.21
2022-12-08T12:09:36.401Z,4.14
2022-12-08T12:12:44.100Z,2.91
2022-12-08T12:16:07.842Z,4.24
2022-12-08T12:18:56.442Z,5.00
2022-12-08T12:21:40.328Z,3.59
2022-12-08T12:24:26.032Z,4.41
2022-12-08T12:27:06.763Z,3.21
2022-12-08T12:29:38.172Z,2.69
2022-12-08T12:32:09.108Z,2.77
2022-12-08T12:34:46.285Z,2.61
2022-12-08T12:37:25.611Z,2.08
2022-12-08T12:39:52.118Z,1.81
2022-12-08T12:42:37.090Z,1.41
2022-12-08T12:45:19.904Z,0.24
2022-12-08T12:47:56.229Z,-0.03
2022-12-08T12:50:36.976Z,0.80
2022-12-08T12:53:18.059Z,1.25
2022-12-08T12:55:58.452Z,0.84
2022-12-08T12:58:28.340Z,0.75
2022-12-08T13:01:37.652Z,-0.07
2022-12-08T13:04:10.769Z,0.23
2022-12-08T13:06:43.320Z,0.73
2022-12-08T13:09:30.620Z,0.89
2022-12-08T13:12:08.489Z,0.57
2022-12-08T13:14:46.204Z,0.73
2022-12-08T13:17:20.958Z,0.55
2022-12-08T13:19:52.014Z,1.43
2022-12-08T13:22:54.170Z,1.65
2022-12-08T13:25:39.299Z,1.52
2022-12-08T13:28:20.850Z,2.07
2022-12-08T13:30:48.896Z,2.74
2022-12-08T13:33:32.650Z,2.42
2022-12-08T13:36:32.785Z,1.45
2022-12-08T13:39:01.295Z,1.61
2022-12-08T13:41:49.382Z,1.33
2022-12-08T13:47:33.868Z,1.15
2022-12-08T13:54:35.281Z,1.07
2022-12-08T13:59:34.392Z,1.67
2022-12-08T14:02:43.740Z,0.85
2022-12-08T14:05:23.598Z,0.87
2022-12-08T14:07:56.888Z,0.51
2022-12-08T14:10:30.297Z,0.58
2022-12-08T14:13:11.080Z,0.27
2022-12-08T14:15:40.019Z,0.02
2022-12-08T14:18:26.105Z,-0.12
2022-12-08T14:21:20.933Z,-0.09
2022-12-08T14:23:48.009Z,0.03
2022-12-08T14:26:14.777Z,0.52
2022-12-08T14:28:45.069Z,0.43
2022-12-08T14:31:14.758Z,0.63
2022-12-08T14:33:42.425Z,0.80
2022-12-08T14:36:10.256Z,1.05
2022-12-08T14:38:37.018Z,1.45
2022-12-08T14:41:11.519Z,1.03
2022-12-08T14:43:41.068Z,1.27
2022-12-08T14:46:22.969Z,1.07
2022-12-08T14:48:49.920Z,2.08
2022-12-08T14:51:24.209Z,1.79
2022-12-08T14:54:05.443Z,1.38
2022-12-08T14:56:50.268Z,0.92
2022-12-08T14:59:32.722Z,0.41
2022-12-08T15:02:24.373Z,0.53
2022-12-08T15:05:20.260Z,1.11
2022-12-08T15:08:00.165Z,0.90
2022-12-08T15:10:30.895Z,1.56
2022-12-08T15:13:22.313Z,1.07
2022-12-08T15:15:57.923Z,0.86
2022-12-08T15:19:00.569Z,1.30
2022-12-08T15:21:32.750Z,1.92
2022-12-08T15:23:59.419Z,1.94
2022-12-08T15:26:28.180Z,2.40
2022-12-08T15:28:55.745Z,2.75
2022-12-08T15:31:22.575Z,3.57
2022-12-08T15:33:49.372Z,3.09
2022-12-08T15:36:16.061Z,3.03
2022-12-08T15:38:43.552Z,3.06
2022-12-08T15:41:15.000Z,2.58
2022-12-08T15:43:42.397Z,1.58
2022-12-08T15:46:09.299Z,1.25
2022-12-08T15:48:37.688Z,1.50
2022-12-08T15:51:04.393Z,1.34
2022-12-08T15:53:31.104Z,1.12
2022-12-08T15:56:28.521Z,0.99
2022-12-08T15:58:54.691Z,0.87
2022-12-08T16:01:22.025Z,0.71
2022-12-08T16:09:36.520Z,1.21
2022-12-08T16:12:22.417Z,0.56
2022-12-08T16:17:37.057Z,0.88
2022-12-08T16:20:18.226Z,0.34
2022-12-08T16:23:19.339Z,0.56
2022-12-08T16:25:52.749Z,0.23
2022-12-08T16:28:52.189Z,-0.06
2022-12-08T16:31:10.286Z,0.59
2022-12-08T16:33:40.557Z,0.30
2022-12-08T16:36:07.463Z,0.40
2022-12-08T16:38:36.052Z,0.82
2022-12-08T16:41:21.454Z,0.61
2022-12-08T16:43:49.067Z,0.71
2022-12-08T16:46:23.842Z,0.82
2022-12-08T16:48:50.709Z,0.90
2022-12-08T16:51:25.078Z,1.28
2022-12-08T16:53:56.792Z,1.26
2022-12-08T16:56:30.432Z,0.76
2022-12-08T16:58:59.031Z,0.84
2022-12-08T17:01:25.937Z,0.61
2022-12-08T17:04:22.459Z,0.26
2022-12-08T17:06:40.175Z,-0.12
2022-12-08T17:09:06.928Z,-0.42
2022-12-08T17:11:39.041Z,-1.09
2022-12-08T17:14:06.099Z,-1.13
2022-12-08T17:16:32.875Z,-0.90
2022-12-08T17:18:59.615Z,-0.45
2022-12-08T17:21:26.285Z,0.29
2022-12-08T17:23:52.990Z,0.31
2022-12-08T17:26:19.661Z,0.17
2022-12-08T17:29:01.938Z,-0.23
2022-12-08T17:31:31.436Z,0.14
2022-12-08T17:34:10.999Z,0.37
2022-12-08T17:36:37.693Z,-0.07
2022-12-08T17:39:05.518Z,-0.06
2022-12-08T17:41:32.955Z,-0.09
2022-12-08T17:43:59.596Z,-0.28
2022-12-08T17:46:26.683Z,-0.53
2022-12-08T17:48:53.568Z,-0.71
2022-12-08T17:51:20.614Z,-0.53
2022-12-08T17:53:47.323Z,-0.30
2022-12-08T17:56:18.959Z,-0.21
2022-12-08T17:58:51.081Z,0.57
2022-12-08T18:01:21.657Z,0.66
2022-12-08T18:03:48.497Z,0.95
2022-12-08T18:06:17.363Z,0.44
2022-12-08T18:08:44.232Z,0.07
2022-12-08T18:11:15.144Z,-0.01
2022-12-08T18:13:41.977Z,0.19
2022-12-08T18:16:08.734Z,0.37
2022-12-08T18:18:35.512Z,0.62
2022-12-08T18:21:02.145Z,0.07
2022-12-08T18:23:28.962Z,-0.18
2022-12-08T18:25:55.635Z,-0.59
2022-12-08T18:28:23.672Z,-0.35
2022-12-08T18:30:50.599Z,-0.21
2022-12-08T18:33:17.419Z,0.04
2022-12-08T18:35:44.079Z,-0.30
2022-12-08T18:38:10.812Z,-0.59
2022-12-08T18:40:37.610Z,-0.32
2022-12-08T18:43:04.406Z,0.07
2022-12-08T18:45:31.557Z,-0.02
2022-12-08T18:47:58.267Z,0.70
2022-12-08T18:50:24.919Z,0.73
2022-12-08T18:52:51.697Z,0.69
2022-12-08T18:55:18.477Z,0.44
2022-12-08T18:57:46.250Z,0.58
2022-12-08T19:00:21.072Z,0.95
2022-12-08T19:02:47.866Z,0.60
2022-12-08T19:05:14.973Z,0.75
2022-12-08T19:07:42.836Z,0.70
2022-12-08T19:10:10.789Z,0.96
2022-12-08T19:12:37.853Z,1.75
2022-12-08T19:15:05.632Z,2.06
2022-12-08T19:17:32.787Z,2.43
2022-12-08T19:19:59.609Z,2.66
2022-12-08T19:22:27.104Z,2.68
2022-12-08T19:24:53.990Z,2.77
2022-12-08T19:27:20.854Z,2.64
2022-12-08T19:29:47.561Z,2.44
2022-12-08T19:32:14.386Z,2.31
2022-12-08T19:34:41.365Z,2.47
2022-12-08T19:37:10.283Z,2.43
2022-12-08T19:39:55.481Z,2.70
2022-12-08T19:42:40.788Z,2.63
2022-12-08T19:45:16.322Z,2.63
2022-12-08T19:47:44.180Z,2.58
2022-12-08T19:50:49.331Z,2.51
2022-12-08T19:53:16.165Z,1.10
2022-12-08T19:55:43.972Z,0.97
2022-12-08T19:58:11.299Z,0.75
2022-12-08T20:00:39.517Z,0.15
2022-12-08T20:03:06.836Z,1.32
2022-12-08T20:05:36.212Z,1.87
2022-12-08T20:08:03.347Z,2.05
2022-12-08T20:10:35.588Z,1.67
2022-12-08T20:13:21.379Z,1.90
2022-12-08T20:15:48.515Z,2.11
2022-12-08T20:18:16.076Z,2.03
2022-12-08T20:20:44.517Z,2.02
2022-12-08T20:23:11.743Z,2.01
2022-12-08T20:25:43.289Z,1.95
2022-12-08T20:28:10.196Z,1.94
2022-12-08T20:30:39.543Z,1.91
2022-12-08T20:33:06.395Z,1.43
2022-12-08T20:35:33.866Z,0.85
2022-12-08T20:38:00.626Z,0.60
2022-12-08T20:40:27.448Z,0.51
2022-12-08T20:42:54.295Z,0.81
2022-12-08T20:45:21.047Z,1.12
2022-12-08T20:47:47.798Z,1.53
2022-12-08T20:50:14.700Z,1.74
2022-12-08T20:52:41.789Z,1.67
2022-12-08T20:55:09.678Z,1.74
2022-12-08T20:57:36.698Z,1.82
2022-12-08T21:00:06.061Z,1.35
2022-12-08T21:02:33.256Z,1.69
2022-12-08T21:05:00.365Z,1.83
2022-12-08T21:07:27.503Z,1.90
2022-12-08T21:09:54.767Z,1.91
2022-12-08T21:12:21.599Z,1.48
2022-12-08T21:14:48.342Z,1.73
2022-12-08T21:17:15.505Z,1.80
2022-12-08T21:19:42.431Z,1.80
2022-12-08T21:22:09.280Z,1.85
2022-12-08T21:24:36.055Z,1.82
2022-12-08T21:27:02.926Z,1.67
2022-12-08T21:29:29.627Z,1.58
2022-12-08T21:31:58.784Z,1.80
2022-12-08T21:34:31.771Z,1.82
2022-12-08T21:36:58.774Z,1.81
2022-12-08T21:39:25.859Z,1.63
2022-12-08T21:42:12.081Z,1.66
2022-12-08T21:44:38.976Z,1.76
2022-12-08T21:47:06.054Z,1.45
2022-12-08T21:49:33.109Z,1.81
2022-12-08T21:52:00.300Z,1.77
2022-12-08T21:54:27.450Z,1.68
2022-12-08T21:56:54.412Z,1.33
2022-12-08T21:59:21.280Z,1.24
2022-12-08T22:01:48.477Z,1.22
2022-12-08T22:04:21.317Z,0.70
2022-12-08T22:06:48.777Z,1.30
2022-12-08T22:09:15.861Z,1.57
2022-12-08T22:11:43.192Z,1.67
2022-12-08T22:14:14.365Z,1.71
2022-12-08T22:16:43.054Z,1.73
2022-12-08T22:19:10.197Z,1.73
2022-12-08T22:21:38.248Z,1.08
2022-12-08T22:24:05.830Z,1.31
2022-12-08T22:26:33.079Z,1.36
2022-12-08T22:29:00.465Z,0.61
2022-12-08T22:31:27.891Z,0.95
2022-12-08T22:33:54.937Z,1.29
2022-12-08T22:36:26.929Z,1.56
2022-12-08T22:38:54.469Z,1.65
2022-12-08T22:41:22.265Z,1.70
2022-12-08T22:43:50.265Z,1.66
2022-12-08T22:46:22.724Z,1.63
2022-12-08T22:48:50.720Z,1.60
2022-12-08T22:51:18.223Z,1.56
2022-12-08T22:53:46.645Z,1.49
2022-12-08T22:56:15.536Z,1.47
2022-12-08T22:58:43.464Z,1.50
2022-12-08T23:01:24.596Z,1.39
2022-12-08T23:03:51.438Z,1.22
2022-12-08T23:06:18.555Z,0.82
2022-12-08T23:08:45.993Z,0.55
2022-12-08T23:11:12.940Z,0.98
2022-12-08T23:13:40.283Z,1.15
2022-12-08T23:16:09.183Z,0.74
2022-12-08T23:18:37.889Z,1.34
2022-12-08T23:21:11.579Z,1.57
2022-12-08T23:23:38.909Z,1.71
2022-12-08T23:26:22.008Z,1.78
2022-12-08T23:28:49.224Z,1.95
2022-12-08T23:31:16.861Z,1.87
2022-12-08T23:33:43.789Z,1.97
2022-12-08T23:36:11.858Z,2.05
2022-12-08T23:38:38.977Z,2.07
2022-12-08T23:41:08.211Z,2.14
2022-12-08T23:43:35.610Z,2.10
2022-12-08T23:46:03.590Z,2.09
2022-12-08T23:48:34.979Z,2.31
2022-12-08T23:51:02.054Z,2.31
2022-12-08T23:53:30.489Z,2.44
2022-12-08T23:56:07.132Z,1.85
2022-12-08T23:58:35.546Z,2.43
